createdAt,value
2023-02-11T00:01:21.024Z,5.10
2023-02-11T00:03:47.996Z,5.40
2023-02-11T00:06:14.913Z,5.50
2023-02-11T00:08:41.728Z,5.40
2023-02-11T00:11:15.921Z,5.40
2023-02-11T00:13:44.332Z,5.10
2023-02-11T00:16:14.093Z,5.20
2023-02-11T00:18:41.047Z,5.30
2023-02-11T00:21:13.548Z,5.40
2023-02-11T00:23:40.685Z,5.00
2023-02-11T00:26:36.893Z,4.70
2023-02-11T00:29:05.488Z,4.70
2023-02-11T00:31:32.735Z,4.90
2023-02-11T00:33:59.690Z,5.00
2023-02-11T00:36:28.644Z,4.70
2023-02-11T00:38:57.127Z,4.80
2023-02-11T00:41:24.581Z,4.70
2023-02-11T00:43:51.722Z,4.70
2023-02-11T00:46:19.566Z,4.80
2023-02-11T00:48:49.719Z,4.90
2023-02-11T00:51:16.482Z,5.10
2023-02-11T00:53:43.463Z,5.30
2023-02-11T00:56:10.423Z,5.40
2023-02-11T00:58:37.748Z,5.40
2023-02-11T01:01:05.212Z,5.40
2023-02-11T01:03:32.221Z,5.40
2023-02-11T01:05:59.022Z,5.40
2023-02-11T01:08:25.918Z,5.40
2023-02-11T01:11:00.655Z,5.50
2023-02-11T01:13:29.098Z,4.90
2023-02-11T01:15:56.455Z,4.80
2023-02-11T01:18:24.643Z,4.70
2023-02-11T01:20:52.853Z,4.70
2023-02-11T01:23:19.841Z,4.30
2023-02-11T01:25:46.857Z,4.50
2023-02-11T01:28:24.971Z,4.70
2023-02-11T01:30:53.317Z,4.60
2023-02-11T01:33:21.009Z,4.80
2023-02-11T01:35:48.026Z,4.70
2023-02-11T01:38:24.705Z,4.30
2023-02-11T01:41:02.331Z,4.40
2023-02-11T01:43:50.979Z,4.50
2023-02-11T01:46:34.844Z,4.50
2023-02-11T01:49:09.325Z,4.50
2023-02-11T01:51:41.684Z,4.80
2023-02-11T01:54:30.107Z,4.90
2023-02-11T01:57:18.474Z,4.90
2023-02-11T01:59:54.442Z,4.70
2023-02-11T02:02:27.117Z,4.60
2023-02-11T02:04:59.861Z,4.10
2023-02-11T02:07:35.950Z,4.00
2023-02-11T02:10:11.333Z,4.10
2023-02-11T02:12:38.254Z,4.20
2023-02-11T02:15:27.940Z,4.10
2023-02-11T02:18:15.851Z,3.80
2023-02-11T02:21:13.626Z,3.70
2023-02-11T02:23:50.700Z,4.00
2023-02-11T02:26:32.449Z,4.30
2023-02-11T02:29:24.831Z,4.40
2023-02-11T02:32:24.309Z,4.20
2023-02-11T02:34:58.342Z,4.10
2023-02-11T02:37:36.410Z,4.30
2023-02-11T02:40:09.676Z,4.30
2023-02-11T02:42:37.994Z,4.40
2023-02-11T02:45:06.972Z,4.60
2023-02-11T02:47:33.779Z,4.60
2023-02-11T02:50:01.097Z,4.70
2023-02-11T02:53:00.854Z,4.30
2023-02-11T02:55:48.757Z,4.40
2023-02-11T02:58:33.741Z,4.50
2023-02-11T03:01:22.464Z,4.40
2023-02-11T03:04:20.937Z,4.50
2023-02-11T03:07:10.198Z,4.10
2023-02-11T03:09:47.674Z,3.60
2023-02-11T03:12:15.722Z,3.60
2023-02-11T03:14:43.437Z,3.90
2023-02-11T03:17:10.954Z,4.10
2023-02-11T03:19:44.223Z,4.10
2023-02-11T03:22:40.716Z,4.20
2023-02-11T03:25:08.697Z,4.20
2023-02-11T03:27:51.154Z,3.90
2023-02-11T03:30:33.148Z,3.80
2023-02-11T03:33:15.494Z,3.90
2023-02-11T03:35:50.800Z,4.00
2023-02-11T03:38:32.971Z,4.00
2023-02-11T03:41:02.405Z,3.70
2023-02-11T03:43:34.493Z,3.80
2023-02-11T03:46:05.709Z,3.90
2023-02-11T03:48:37.880Z,3.80
2023-02-11T03:51:09.449Z,3.60
2023-02-11T03:53:38.947Z,3.80
2023-02-11T03:56:09.363Z,3.90
2023-02-11T03:58:36.151Z,3.80
2023-02-11T04:01:05.209Z,3.50
2023-02-11T04:03:33.142Z,3.50
2023-02-11T04:05:59.960Z,3.70
2023-02-11T04:08:26.754Z,3.90
2023-02-11T04:10:56.698Z,3.90
2023-02-11T04:13:23.482Z,4.00
2023-02-11T04:15:51.004Z,3.90
2023-02-11T04:18:18.057Z,4.00
2023-02-11T04:20:44.846Z,3.90
2023-02-11T04:23:11.597Z,3.80
2023-02-11T04:25:38.394Z,3.50
2023-02-11T04:28:05.286Z,3.50
2023-02-11T04:30:32.125Z,3.60
2023-02-11T04:32:59.198Z,3.40
2023-02-11T04:35:26.059Z,3.10
2023-02-11T04:37:52.871Z,3.20
2023-02-11T04:40:19.749Z,3.30
2023-02-11T04:42:46.565Z,3.40
2023-02-11T04:45:15.878Z,3.30
2023-02-11T04:47:42.698Z,3.00
2023-02-11T04:50:09.647Z,2.80
2023-02-11T04:52:36.421Z,2.90
2023-02-11T04:55:03.337Z,3.10
2023-02-11T04:57:30.164Z,3.00
2023-02-11T05:00:00.022Z,3.00
2023-02-11T05:02:26.940Z,3.00
2023-02-11T05:04:53.697Z,2.80
2023-02-11T05:07:22.902Z,2.50
2023-02-11T05:09:49.669Z,2.30
2023-02-11T05:12:16.581Z,2.60
2023-02-11T05:14:43.367Z,2.80
2023-02-11T05:17:11.282Z,2.90
2023-02-11T05:19:38.150Z,2.80
2023-02-11T05:22:05.068Z,2.90
2023-02-11T05:24:32.435Z,2.80
2023-02-11T05:26:59.718Z,2.40
2023-02-11T05:29:26.527Z,2.60
2023-02-11T05:31:53.562Z,2.50
2023-02-11T05:34:20.435Z,2.50
2023-02-11T05:36:47.239Z,2.60
2023-02-11T05:39:14.054Z,2.60
2023-02-11T05:41:40.862Z,2.60
2023-02-11T05:44:07.649Z,2.80
2023-02-11T05:46:34.483Z,2.70
2023-02-11T05:49:01.379Z,2.80
2023-02-11T05:51:28.179Z,2.70
2023-02-11T05:53:57.403Z,2.70
2023-02-11T05:56:24.230Z,2.60
2023-02-11T05:58:51.115Z,2.50
2023-02-11T06:01:17.860Z,2.20
2023-02-11T06:03:44.728Z,2.00
2023-02-11T06:06:12.809Z,2.20
2023-02-11T06:08:41.356Z,2.30
2023-02-11T06:11:08.154Z,2.30
2023-02-11T06:13:36.125Z,2.30
2023-02-11T06:16:03.537Z,2.40
2023-02-11T06:18:30.616Z,2.40
2023-02-11T06:20:57.425Z,2.10
2023-02-11T06:23:24.312Z,2.20
2023-02-11T06:25:52.585Z,2.40
2023-02-11T06:28:19.922Z,2.50
2023-02-11T06:30:46.751Z,2.60
2023-02-11T06:33:16.477Z,2.80
2023-02-11T06:35:43.316Z,2.80
2023-02-11T06:38:10.245Z,2.50
2023-02-11T06:40:37.130Z,2.30
2023-02-11T06:43:03.938Z,2.20
2023-02-11T06:45:30.736Z,2.50
2023-02-11T06:47:59.166Z,2.50
2023-02-11T06:50:25.937Z,2.30
2023-02-11T06:52:52.748Z,2.50
2023-02-11T06:55:19.617Z,2.70
2023-02-11T06:57:46.426Z,2.70
2023-02-11T07:00:13.934Z,2.60
2023-02-11T07:02:40.697Z,2.70
2023-02-11T07:05:11.147Z,2.80
2023-02-11T07:07:38.007Z,2.90
2023-02-11T07:10:05.838Z,2.90
2023-02-11T07:12:32.745Z,2.90
2023-02-11T07:14:59.552Z,2.80
2023-02-11T07:17:26.432Z,2.90
2023-02-11T07:19:53.681Z,2.90
2023-02-11T07:22:20.543Z,3.10
2023-02-11T07:24:47.337Z,3.10
2023-02-11T07:27:14.169Z,3.00
2023-02-11T07:29:42.610Z,3.00
2023-02-11T07:32:09.568Z,2.90
2023-02-11T07:34:36.477Z,3.10
2023-02-11T07:37:06.078Z,3.40
2023-02-11T07:39:32.913Z,3.50
2023-02-11T07:42:01.515Z,3.60
2023-02-11T07:44:28.451Z,3.60
2023-02-11T07:46:55.281Z,3.70
2023-02-11T07:49:22.204Z,3.70
2023-02-11T07:51:51.045Z,3.60
2023-02-11T07:54:18.233Z,3.70
2023-02-11T07:56:45.036Z,3.80
2023-02-11T07:59:12.491Z,3.90
2023-02-11T08:01:39.959Z,4.20
2023-02-11T08:04:06.827Z,4.30
2023-02-11T08:06:34.884Z,4.40
2023-02-11T08:09:07.242Z,4.60
2023-02-11T08:11:34.084Z,4.70
2023-02-11T08:14:01.169Z,4.80
2023-02-11T08:16:33.568Z,4.80
2023-02-11T08:19:03.130Z,4.80
2023-02-11T08:21:30.022Z,5.00
2023-02-11T08:23:57.242Z,4.90
2023-02-11T08:26:28.700Z,5.00
2023-02-11T08:28:56.776Z,5.00
2023-02-11T08:31:26.883Z,5.20
2023-02-11T08:33:54.882Z,5.30
2023-02-11T08:36:25.472Z,5.30
2023-02-11T08:39:05.645Z,5.50
2023-02-11T08:41:39.253Z,5.60
2023-02-11T08:44:06.261Z,5.60
2023-02-11T08:46:33.286Z,5.70
2023-02-11T08:49:00.181Z,5.80
2023-02-11T08:51:30.364Z,5.90
2023-02-11T08:53:57.738Z,5.90
2023-02-11T08:56:24.953Z,6.10
2023-02-11T08:58:52.537Z,6.10
2023-02-11T09:01:23.367Z,6.10
2023-02-11T09:03:50.748Z,6.20
2023-02-11T09:06:18.748Z,6.30
2023-02-11T09:08:49.416Z,6.30
2023-02-11T09:11:18.199Z,6.30
2023-02-11T09:13:45.286Z,6.30
2023-02-11T09:16:22.157Z,6.30
2023-02-11T09:18:49.782Z,6.40
2023-02-11T09:21:18.050Z,6.50
2023-02-11T09:23:47.627Z,6.60
2023-02-11T09:26:21.789Z,6.80
2023-02-11T09:28:50.299Z,6.80
2023-02-11T09:31:20.612Z,6.70
2023-02-11T09:33:51.192Z,6.70
2023-02-11T09:36:20.748Z,6.80
2023-02-11T09:38:47.877Z,6.80
2023-02-11T09:41:23.513Z,6.90
2023-02-11T09:43:58.524Z,7.00
2023-02-11T09:46:27.475Z,7.00
2023-02-11T09:48:56.282Z,7.00
2023-02-11T09:51:47.382Z,7.10
2023-02-11T09:54:37.423Z,7.10
2023-02-11T09:57:19.471Z,7.20
2023-02-11T09:59:53.509Z,7.30
2023-02-11T10:02:24.614Z,7.30
2023-02-11T10:05:00.037Z,7.30
2023-02-11T10:07:47.193Z,7.40
2023-02-11T10:10:25.935Z,7.50
2023-02-11T10:13:20.061Z,7.60
2023-02-11T10:16:14.766Z,7.70
2023-02-11T10:19:13.261Z,7.70
2023-02-11T10:22:10.856Z,7.80
2023-02-11T10:24:38.919Z,7.80
2023-02-11T10:27:24.469Z,8.00
2023-02-11T10:30:06.852Z,8.00
2023-02-11T10:32:57.246Z,8.10
2023-02-11T10:35:24.561Z,8.10
2023-02-11T10:37:51.456Z,8.10
2023-02-11T10:40:21.914Z,8.10
2023-02-11T10:42:57.625Z,8.10
2023-02-11T10:45:33.368Z,8.10
2023-02-11T10:48:03.319Z,8.20
2023-02-11T10:50:34.999Z,8.20
2023-02-11T10:53:20.506Z,8.10
2023-02-11T10:55:54.651Z,8.10
2023-02-11T10:58:43.248Z,8.10
2023-02-11T11:01:23.902Z,8.00
2023-02-11T11:03:52.946Z,7.90
2023-02-11T11:06:32.128Z,8.10
2023-02-11T11:08:59.189Z,8.20
2023-02-11T11:11:26.941Z,8.30
2023-02-11T11:13:53.715Z,8.30
2023-02-11T11:16:28.276Z,8.50
2023-02-11T11:19:07.398Z,8.70
2023-02-11T11:21:34.417Z,9.00
2023-02-11T11:24:03.701Z,8.90
2023-02-11T11:26:44.963Z,9.00
2023-02-11T11:29:36.830Z,9.20
2023-02-11T11:32:23.858Z,9.50
2023-02-11T11:34:55.624Z,9.50
2023-02-11T11:37:35.506Z,9.60
2023-02-11T11:40:09.721Z,9.80
2023-02-11T11:42:39.127Z,9.60
2023-02-11T11:45:22.898Z,9.40
2023-02-11T11:48:06.632Z,9.40
2023-02-11T11:50:36.244Z,9.50
2023-02-11T11:53:31.187Z,9.50
2023-02-11T11:56:09.187Z,9.50
2023-02-11T11:58:36.045Z,9.40
2023-02-11T12:01:17.935Z,9.30
2023-02-11T12:03:50.361Z,9.30
2023-02-11T12:06:19.922Z,9.30
2023-02-11T12:09:03.721Z,9.20
2023-02-11T12:11:45.575Z,9.20
2023-02-11T12:14:42.897Z,9.20
2023-02-11T12:17:28.314Z,9.30
2023-02-11T12:20:18.105Z,9.50
2023-02-11T12:22:53.933Z,9.60
2023-02-11T12:25:46.548Z,9.80
2023-02-11T12:28:22.422Z,9.70
2023-02-11T12:31:12.134Z,9.70
2023-02-11T12:33:58.048Z,9.70
2023-02-11T12:37:07.730Z,9.80
2023-02-11T12:39:50.483Z,10.00
2023-02-11T12:42:51.890Z,9.90
2023-02-11T12:45:33.796Z,10.00
2023-02-11T12:48:03.367Z,10.10
2023-02-11T12:50:53.576Z,10.10
2023-02-11T12:53:32.065Z,10.10
2023-02-11T12:56:05.559Z,10.20
2023-02-11T12:58:44.443Z,10.40
2023-02-11T13:01:30.702Z,10.60
2023-02-11T13:04:30.827Z,10.70
2023-02-11T13:07:15.934Z,10.70
2023-02-11T13:09:53.198Z,10.80
2023-02-11T13:12:38.840Z,10.90
2023-02-11T13:15:10.309Z,11.10
2023-02-11T13:17:47.022Z,11.10
2023-02-11T13:20:34.754Z,11.00
2023-02-11T13:23:17.774Z,10.90
2023-02-11T13:26:16.731Z,10.80
2023-02-11T13:29:02.459Z,10.90
2023-02-11T13:31:30.243Z,10.90
2023-02-11T13:33:57.287Z,11.10
2023-02-11T13:36:33.013Z,11.10
2023-02-11T13:39:19.383Z,11.20
2023-02-11T13:41:52.170Z,11.30
2023-02-11T13:44:23.835Z,11.50
2023-02-11T13:47:05.318Z,11.50
2023-02-11T13:49:37.018Z,11.60
2023-02-11T13:52:06.929Z,11.70
2023-02-11T13:54:38.264Z,11.70
2023-02-11T13:57:20.317Z,11.80
2023-02-11T13:59:49.053Z,11.90
2023-02-11T14:02:51.154Z,12.00
2023-02-11T14:05:45.063Z,12.10
2023-02-11T14:08:30.364Z,12.10
2023-02-11T14:11:01.679Z,12.10
2023-02-11T14:13:50.071Z,12.20
2023-02-11T14:16:35.590Z,12.20
2023-02-11T14:19:06.239Z,12.20
2023-02-11T14:21:42.275Z,12.20
2023-02-11T14:24:12.997Z,12.20
2023-02-11T14:26:49.018Z,12.20
2023-02-11T14:29:56.411Z,12.20
2023-02-11T14:32:49.077Z,12.30
2023-02-11T14:35:34.036Z,12.40
2023-02-11T14:38:01.905Z,12.20
2023-02-11T14:40:40.255Z,12.20
2023-02-11T14:43:15.036Z,12.20
2023-02-11T14:45:45.330Z,12.30
2023-02-11T14:48:20.478Z,12.40
2023-02-11T14:50:54.031Z,12.40
2023-02-11T14:53:23.879Z,12.40
2023-02-11T14:55:52.625Z,12.40
2023-02-11T14:58:28.566Z,12.40
2023-02-11T15:01:02.219Z,12.50
2023-02-11T15:03:43.360Z,12.50
2023-02-11T15:06:33.825Z,12.50
2023-02-11T15:09:17.006Z,12.60
2023-02-11T15:11:47.746Z,12.60
2023-02-11T15:14:36.399Z,12.60
2023-02-11T15:17:07.730Z,12.50
2023-02-11T15:19:38.389Z,12.40
2023-02-11T15:22:21.930Z,12.40
2023-02-11T15:25:10.293Z,12.30
2023-02-11T15:27:42.406Z,12.30
2023-02-11T15:30:21.448Z,12.30
2023-02-11T15:32:58.082Z,12.30
2023-02-11T15:35:28.674Z,12.20
2023-02-11T15:37:57.469Z,12.20
2023-02-11T15:40:37.403Z,12.20
2023-02-11T15:43:09.079Z,12.20
2023-02-11T15:45:38.816Z,12.20
2023-02-11T15:48:10.778Z,12.20
2023-02-11T15:50:40.689Z,12.20
2023-02-11T15:53:22.745Z,12.10
2023-02-11T15:55:51.867Z,12.10
2023-02-11T15:58:20.165Z,12.00
2023-02-11T16:00:50.389Z,12.00
2023-02-11T16:03:25.285Z,12.00
2023-02-11T16:05:52.215Z,11.90
2023-02-11T16:08:24.447Z,12.00
2023-02-11T16:10:58.428Z,11.90
2023-02-11T16:13:28.308Z,11.80
2023-02-11T16:16:03.993Z,11.90
2023-02-11T16:18:38.802Z,11.80
2023-02-11T16:21:14.274Z,11.70
2023-02-11T16:23:44.726Z,11.70
2023-02-11T16:26:34.437Z,11.70
2023-02-11T16:29:07.779Z,11.60
2023-02-11T16:31:41.015Z,11.60
2023-02-11T16:34:16.880Z,11.60
2023-02-11T16:36:47.775Z,11.50
2023-02-11T16:39:16.795Z,11.40
2023-02-11T16:41:46.510Z,11.40
2023-02-11T16:44:13.577Z,11.30
2023-02-11T16:46:40.597Z,11.40
2023-02-11T16:49:17.230Z,11.30
2023-02-11T16:51:52.561Z,11.30
2023-02-11T16:54:22.893Z,11.20
2023-02-11T16:56:49.749Z,11.30
2023-02-11T16:59:16.617Z,11.50
2023-02-11T17:01:45.044Z,11.60
2023-02-11T17:04:20.117Z,11.70
2023-02-11T17:06:48.147Z,11.30
2023-02-11T17:09:23.635Z,11.30
2023-02-11T17:50:37.022Z,25.90
2023-02-11T17:53:03.895Z,23.10
2023-02-11T17:55:33.908Z,18.40
2023-02-11T17:58:01.137Z,14.60
2023-02-11T18:00:30.992Z,13.60
2023-02-11T18:03:02.749Z,12.50
2023-02-11T18:05:37.249Z,11.40
2023-02-11T18:08:08.538Z,11.30
2023-02-11T18:10:35.340Z,11.40
2023-02-11T18:13:03.441Z,11.80
2023-02-11T18:15:30.232Z,11.30
2023-02-11T18:17:57.080Z,11.10
2023-02-11T18:20:23.929Z,10.80
2023-02-11T18:22:50.851Z,10.70
2023-02-11T18:25:18.779Z,10.40
2023-02-11T18:27:46.347Z,10.00
2023-02-11T18:30:20.754Z,9.60
2023-02-11T18:32:47.614Z,9.60
2023-02-11T18:35:15.902Z,9.80
2023-02-11T18:37:43.310Z,9.70
2023-02-11T18:40:11.708Z,9.50
2023-02-11T18:42:39.279Z,9.10
2023-02-11T18:45:09.576Z,8.70
2023-02-11T18:47:55.077Z,8.50
2023-02-11T18:50:22.139Z,8.40
2023-02-11T18:52:49.698Z,8.40
2023-02-11T18:55:16.628Z,8.40
2023-02-11T18:57:43.515Z,8.50
2023-02-11T19:00:11.177Z,8.40
2023-02-11T19:02:38.143Z,8.20
2023-02-11T19:05:06.610Z,8.00
2023-02-11T19:07:33.480Z,8.10
2023-02-11T19:10:00.383Z,8.20
2023-02-11T19:12:27.216Z,8.40
2023-02-11T19:14:54.114Z,8.60
2023-02-11T19:17:21.087Z,8.60
2023-02-11T19:19:47.901Z,8.50
2023-02-11T19:22:14.693Z,8.60
2023-02-11T19:24:44.789Z,8.50
2023-02-11T19:27:11.890Z,8.40
2023-02-11T19:29:39.059Z,8.40
2023-02-11T19:32:09.718Z,8.10
2023-02-11T19:34:41.288Z,7.90
2023-02-11T19:37:10.812Z,7.80
2023-02-11T19:39:37.753Z,7.80
2023-02-11T19:42:04.841Z,7.90
2023-02-11T19:44:32.519Z,8.20
2023-02-11T19:46:59.994Z,8.80
2023-02-11T19:49:26.857Z,8.70
2023-02-11T19:51:55.420Z,8.40
2023-02-11T19:54:23.190Z,8.10
2023-02-11T19:56:50.265Z,8.10
2023-02-11T19:59:17.166Z,7.90
2023-02-11T20:01:47.514Z,7.80
2023-02-11T20:04:18.066Z,7.80
2023-02-11T20:06:45.005Z,7.70
2023-02-11T20:09:14.311Z,7.90
2023-02-11T20:11:41.636Z,7.80
2023-02-11T20:14:10.498Z,7.60
2023-02-11T20:16:48.249Z,7.50
2023-02-11T20:19:21.460Z,7.60
2023-02-11T20:21:49.026Z,7.60
2023-02-11T20:24:17.434Z,7.70
2023-02-11T20:26:45.256Z,7.40
2023-02-11T20:29:13.987Z,7.30
2023-02-11T20:31:41.281Z,7.40
2023-02-11T20:34:08.217Z,7.40
2023-02-11T20:36:35.729Z,7.40
2023-02-11T20:39:05.003Z,7.40
2023-02-11T20:41:36.480Z,7.40
2023-02-11T20:44:06.792Z,7.50
2023-02-11T20:46:34.627Z,7.50
2023-02-11T20:49:02.022Z,7.20
2023-02-11T20:51:31.425Z,7.10
2023-02-11T20:53:58.740Z,7.00
2023-02-11T20:56:28.830Z,6.80
2023-02-11T20:58:58.150Z,6.70
2023-02-11T21:01:30.923Z,7.00
2023-02-11T21:04:02.356Z,7.10
2023-02-11T21:06:45.486Z,7.20
2023-02-11T21:09:15.165Z,7.20
2023-02-11T21:11:43.020Z,7.30
2023-02-11T21:14:11.112Z,7.40
2023-02-11T21:16:38.770Z,7.30
2023-02-11T21:19:06.254Z,7.40
2023-02-11T21:21:36.033Z,7.50
2023-02-11T21:24:05.360Z,7.70
2023-02-11T21:26:32.755Z,7.80
2023-02-11T21:28:59.524Z,7.80
2023-02-11T21:31:28.996Z,7.80
2023-02-11T21:33:56.704Z,7.80
2023-02-11T21:36:24.147Z,7.80
2023-02-11T21:38:51.255Z,7.80
2023-02-11T21:41:22.380Z,7.70
2023-02-11T21:43:49.874Z,7.70
2023-02-11T21:46:17.865Z,7.80
2023-02-11T21:48:44.790Z,7.70
2023-02-11T21:51:15.175Z,7.30
2023-02-11T21:53:42.080Z,7.20
2023-02-11T21:56:13.034Z,7.50
2023-02-11T21:58:39.855Z,8.10
2023-02-11T22:01:20.192Z,8.80
2023-02-11T22:03:47.327Z,9.40
2023-02-11T22:06:27.449Z,9.90
2023-02-11T22:08:54.935Z,10.00
2023-02-11T22:11:22.139Z,9.80
2023-02-11T22:13:53.838Z,9.30
2023-02-11T22:16:21.044Z,8.40
2023-02-11T22:18:48.091Z,7.90
2023-02-11T22:21:17.806Z,7.80
2023-02-11T22:23:48.342Z,7.90
2023-02-11T22:26:18.470Z,7.80
2023-02-11T22:28:48.894Z,7.70
2023-02-11T22:31:23.104Z,7.50
2023-02-11T22:33:50.179Z,7.30
2023-02-11T22:36:28.931Z,7.40
2023-02-11T22:38:56.590Z,7.50
2023-02-11T22:41:24.732Z,7.70
2023-02-11T22:43:51.835Z,7.70
2023-02-11T22:46:19.595Z,7.50
2023-02-11T22:48:47.197Z,7.30
2023-02-11T22:51:17.599Z,7.10
2023-02-11T22:53:44.573Z,7.00
2023-02-11T22:56:15.587Z,7.20
2023-02-11T22:58:43.088Z,7.30
2023-02-11T23:01:10.395Z,7.10
2023-02-11T23:03:37.313Z,7.00
2023-02-11T23:06:04.634Z,7.00
2023-02-11T23:08:32.520Z,7.20
2023-02-11T23:11:29.435Z,7.20
2023-02-11T23:13:58.405Z,7.30
2023-02-11T23:16:28.066Z,7.50
2023-02-11T23:18:55.154Z,7.60
2023-02-11T23:21:25.706Z,7.30
2023-02-11T23:23:58.489Z,6.90
2023-02-11T23:26:25.802Z,6.90
2023-02-11T23:28:52.772Z,7.20
2023-02-11T23:31:26.546Z,7.30
2023-02-11T23:33:54.007Z,7.20
2023-02-11T23:36:22.386Z,7.20
2023-02-11T23:38:49.573Z,7.20
2023-02-11T23:41:17.132Z,7.20
